Time;durP1;ratioP1;P1;durP2;ratioP2;P2;SDS_P1;SDS_P2;PMS_P1;PMS_P2;Temp;Humidity;BMP_temperature;BMP_pressure;BME280_temperature;BME280_humidity;BME280_pressure;Samples;Min_cycle;Max_cycle;Signal;HPM_P1;HPM_P2
2023/11/13 00:02:48;;;;;;;5.07;2.07;;;;;6.50;96248.00;;;;5069851;28;20251;-87
2023/11/13 00:05:38;;;;;;;6.13;2.40;;;;;6.20;96261.00;;;;5068616;28;20266;-85
2023/11/13 00:08:27;;;;;;;6.17;2.47;;;;;6.20;96250.00;;;;5069178;28;20215;-86
2023/11/13 00:11:16;;;;;;;5.23;2.10;;;;;6.10;96258.00;;;;5068798;28;20192;-84
2023/11/13 00:14:06;;;;;;;7.53;3.13;;;;;6.50;96255.00;;;;5067255;28;20215;-85
2023/11/13 00:16:55;;;;;;;8.70;3.40;;;;;6.50;96255.00;;;;5062310;28;20200;-88
2023/11/13 00:19:45;;;;;;;4.03;1.67;;;;;6.50;96253.00;;;;5068088;28;20200;-85
2023/11/13 00:22:34;;;;;;;7.37;2.97;;;;;6.00;96272.00;;;;5068063;28;20595;-87
2023/11/13 00:25:23;;;;;;;5.90;2.47;;;;;6.50;96258.00;;;;5069116;28;20728;-85
2023/11/13 00:28:12;;;;;;;5.03;2.27;;;;;5.80;96270.00;;;;5065219;28;20212;-87
2023/11/13 00:31:04;;;;;;;9.30;3.60;;;;;6.20;96264.00;;;;5065458;28;20204;-86
2023/11/13 00:33:53;;;;;;;4.87;2.00;;;;;5.70;96266.00;;;;5069262;28;20203;-85
2023/11/13 00:36:42;;;;;;;5.43;2.20;;;;;6.20;96261.00;;;;5069024;28;20200;-88
2023/11/13 00:39:32;;;;;;;7.60;2.97;;;;;5.90;96284.00;;;;5068445;28;20204;-85
2023/11/13 00:42:21;;;;;;;4.20;1.80;;;;;6.40;96300.00;;;;5063649;28;20632;-87
2023/11/13 00:45:10;;;;;;;7.43;2.93;;;;;6.10;96308.00;;;;5055264;28;20232;-85
2023/11/13 00:48:01;;;;;;;9.67;3.73;;;;;6.40;96307.00;;;;5068296;28;20204;-85
2023/11/13 00:50:50;;;;;;;4.60;1.90;;;;;6.10;96322.00;;;;5069373;28;20204;-86
2023/11/13 00:53:40;;;;;;;5.50;2.37;;;;;6.40;96308.00;;;;5069543;28;20211;-86
2023/11/13 00:56:29;;;;;;;5.23;2.20;;;;;6.40;96327.00;;;;5062984;28;20204;-86
2023/11/13 00:59:19;;;;;;;8.83;3.27;;;;;6.60;96295.00;;;;5062665;28;20693;-85
2023/11/13 01:02:08;;;;;;;6.93;2.90;;;;;6.30;96287.00;;;;5071155;28;20734;-87
2023/11/13 01:04:59;;;;;;;7.63;3.07;;;;;6.10;96294.00;;;;5068582;28;20215;-85
2023/11/13 01:07:48;;;;;;;5.00;2.07;;;;;5.90;96286.00;;;;5069534;28;20207;-85
2023/11/13 01:10:37;;;;;;;6.13;2.47;;;;;5.50;96320.00;;;;5067506;28;20207;-86
2023/11/13 01:13:26;;;;;;;4.93;2.10;;;;;5.90;96317.00;;;;5067810;28;20192;-85
2023/11/13 01:16:15;;;;;;;4.70;1.90;;;;;6.30;96321.00;;;;5068461;28;20215;-85
2023/11/13 01:19:04;;;;;;;8.93;3.63;;;;;5.90;96317.00;;;;5066337;28;20202;-86
2023/11/13 01:21:55;;;;;;;3.70;1.70;;;;;6.00;96335.00;;;;5071749;28;20228;-84
2023/11/13 01:24:44;;;;;;;6.57;2.67;;;;;6.20;96339.00;;;;5066385;28;20216;-85
2023/11/13 01:27:57;;;;;;;9.80;3.80;;;;;6.40;96309.00;;;;5060302;28;20196;-86
2023/11/13 01:30:46;;;;;;;6.20;2.50;;;;;6.10;96321.00;;;;5076846;23;20234;-88
2023/11/13 01:33:36;;;;;;;5.87;2.33;;;;;6.50;96330.00;;;;5086790;28;20204;-89
2023/11/13 01:36:25;;;;;;;3.57;1.53;;;;;6.50;96338.00;;;;5089069;28;20203;-89
2023/11/13 01:39:15;;;;;;;6.20;2.40;;;;;6.30;96319.00;;;;5083775;28;20207;-88
2023/11/13 01:42:05;;;;;;;7.67;3.20;;;;;6.00;96325.00;;;;5076464;28;20685;-88
2023/11/13 01:44:55;;;;;;;2.83;1.37;;;;;6.50;96333.00;;;;5076425;28;20583;-89
2023/11/13 01:47:47;;;;;;;8.63;3.40;;;;;6.30;96342.00;;;;5078793;28;20200;-89
2023/11/13 01:50:36;;;;;;;4.30;1.80;;;;;6.30;96327.00;;;;5073525;28;20701;-88
2023/11/13 01:53:26;;;;;;;5.13;2.10;;;;;6.40;96337.00;;;;5073219;28;20211;-89
2023/11/13 01:56:17;;;;;;;3.70;1.63;;;;;6.40;96337.00;;;;5068008;28;20204;-88
2023/11/13 01:59:08;;;;;;;5.53;2.27;;;;;6.30;96331.00;;;;5065315;28;20233;-88
2023/11/13 02:01:57;;;;;;;8.37;3.40;;;;;6.10;96324.00;;;;5066541;28;20602;-89
2023/11/13 02:04:47;;;;;;;6.73;2.83;;;;;6.00;96333.00;;;;5078995;28;20214;-89
2023/11/13 02:07:36;;;;;;;9.23;3.57;;;;;6.20;96332.00;;;;5076364;28;20208;-88
2023/11/13 02:10:26;;;;;;;5.93;2.40;;;;;6.10;96332.00;;;;5066499;28;20235;-88
2023/11/13 02:13:17;;;;;;;5.00;2.20;;;;;5.90;96344.00;;;;5068479;28;20219;-88
2023/11/13 02:16:09;;;;;;;8.27;3.40;;;;;5.80;96318.00;;;;5075762;28;20289;-88
2023/11/13 02:18:58;;;;;;;5.03;2.10;;;;;5.90;96327.00;;;;5072044;28;20192;-89
2023/11/13 02:21:48;;;;;;;4.53;1.83;;;;;5.80;96315.00;;;;5069680;28;20208;-89
2023/11/13 02:24:38;;;;;;;3.87;1.67;;;;;5.90;96317.00;;;;5070769;28;20199;-88
2023/11/13 02:27:29;;;;;;;4.13;1.83;;;;;5.80;96303.00;;;;5067167;28;20196;-88
2023/11/13 02:30:17;;;;;;;5.03;2.13;;;;;5.90;96309.00;;;;5070009;28;20225;-88
2023/11/13 02:33:07;;;;;;;5.33;2.37;;;;;5.90;96335.00;;;;5072929;28;20200;-88
2023/11/13 02:35:56;;;;;;;5.97;2.40;;;;;5.60;96333.00;;;;5069844;28;20228;-88
2023/11/13 02:38:46;;;;;;;4.73;1.97;;;;;5.30;96349.00;;;;5077320;28;20688;-86
2023/11/13 02:41:37;;;;;;;5.40;2.27;;;;;4.70;96339.00;;;;5074888;28;20224;-89
2023/11/13 02:44:26;;;;;;;3.87;1.63;;;;;5.40;96329.00;;;;5073073;28;20212;-87
2023/11/13 02:47:15;;;;;;;4.30;1.80;;;;;5.50;96314.00;;;;5071222;28;20211;-87
2023/11/13 02:50:06;;;;;;;7.97;3.30;;;;;5.20;96311.00;;;;5076046;28;20225;-88
2023/11/13 02:52:56;;;;;;;5.67;2.27;;;;;4.60;96332.00;;;;5063201;28;20446;-88
2023/11/13 02:55:45;;;;;;;5.97;2.60;;;;;4.50;96330.00;;;;5075231;28;20761;-86
2023/11/13 02:58:35;;;;;;;5.47;2.30;;;;;4.30;96329.00;;;;5075797;28;20422;-88
2023/11/13 03:01:24;;;;;;;5.70;2.40;;;;;4.80;96318.00;;;;5070428;28;20223;-88
2023/11/13 03:04:14;;;;;;;6.63;2.83;;;;;4.90;96324.00;;;;5076516;28;20998;-87
2023/11/13 03:07:04;;;;;;;10.40;4.03;;;;;4.80;96336.00;;;;5066264;28;20438;-88
2023/11/13 03:09:53;;;;;;;3.93;1.70;;;;;4.70;96318.00;;;;5074157;28;20469;-88
2023/11/13 03:12:43;;;;;;;6.37;2.67;;;;;4.70;96321.00;;;;5072402;28;20435;-87
2023/11/13 03:15:33;;;;;;;4.67;2.07;;;;;4.70;96305.00;;;;5068746;28;20427;-88
2023/11/13 03:18:23;;;;;;;5.07;2.17;;;;;5.00;96317.00;;;;5065928;28;20446;-87
2023/11/13 03:21:12;;;;;;;7.43;3.20;;;;;5.20;96336.00;;;;5074884;28;20442;-88
2023/11/13 03:24:01;;;;;;;7.57;3.20;;;;;5.20;96341.00;;;;5072735;28;20228;-88
2023/11/13 03:26:50;;;;;;;4.50;1.77;;;;;5.20;96349.00;;;;5069391;28;20200;-89
2023/11/13 03:29:39;;;;;;;5.53;2.37;;;;;4.70;96331.00;;;;5069663;28;20442;-89
2023/11/13 03:32:30;;;;;;;4.90;2.07;;;;;4.10;96332.00;;;;5069439;28;20196;-89
2023/11/13 03:35:20;;;;;;;4.00;1.70;;;;;4.80;96346.00;;;;5071745;28;20488;-88
2023/11/13 03:38:09;;;;;;;6.40;2.80;;;;;5.10;96356.00;;;;5071658;28;20437;-88
2023/11/13 03:40:58;;;;;;;5.77;2.33;;;;;5.00;96348.00;;;;5073810;28;20454;-87
2023/11/13 03:43:47;;;;;;;5.03;2.10;;;;;4.80;96352.00;;;;5070643;28;20233;-89
2023/11/13 03:46:37;;;;;;;5.37;2.30;;;;;4.50;96359.00;;;;5077208;28;20690;-90
2023/11/13 03:49:27;;;;;;;10.00;3.60;;;;;4.50;96349.00;;;;5075536;28;20429;-88
2023/11/13 03:52:16;;;;;;;3.13;1.47;;;;;4.30;96359.00;;;;5075704;28;20437;-88
2023/11/13 03:55:06;;;;;;;7.70;3.27;;;;;4.30;96376.00;;;;5073382;28;20414;-89
2023/11/13 03:57:55;;;;;;;4.93;2.10;;;;;4.60;96363.00;;;;5076947;28;20438;-87
2023/11/13 04:00:44;;;;;;;7.13;3.00;;;;;4.80;96361.00;;;;5068527;28;20471;-86
2023/11/13 04:03:33;;;;;;;6.00;2.40;;;;;4.70;96360.00;;;;5073534;28;20472;-86
2023/11/13 04:06:24;;;;;;;6.27;2.40;;;;;4.70;96351.00;;;;5066531;28;20429;-86
2023/11/13 04:09:13;;;;;;;4.93;2.13;;;;;4.90;96365.00;;;;5072791;28;20210;-87
2023/11/13 04:12:02;;;;;;;7.27;2.93;;;;;4.90;96369.00;;;;5071919;28;20422;-88
2023/11/13 04:14:51;;;;;;;5.67;2.40;;;;;4.00;96372.00;;;;5073236;28;20427;-87
2023/11/13 04:17:41;;;;;;;7.73;3.10;;;;;3.80;96371.00;;;;5069050;28;20415;-85
2023/11/13 04:20:30;;;;;;;4.23;1.97;;;;;4.20;96371.00;;;;5072864;28;20446;-86
2023/11/13 04:23:21;;;;;;;5.07;2.10;;;;;4.50;96382.00;;;;5066978;28;20459;-85
2023/11/13 04:26:10;;;;;;;6.40;2.80;;;;;4.30;96370.00;;;;5058617;28;20430;-86
2023/11/13 04:28:59;;;;;;;6.03;2.40;;;;;4.50;96377.00;;;;5071238;28;20427;-86
2023/11/13 04:31:48;;;;;;;3.17;1.47;;;;;4.00;96382.00;;;;5071768;28;20465;-86
2023/11/13 04:34:37;;;;;;;2.93;1.37;;;;;4.10;96379.00;;;;5085832;28;20418;-89
2023/11/13 04:37:26;;;;;;;2.93;1.23;;;;;4.10;96376.00;;;;5083000;28;20430;-88
2023/11/13 04:40:16;;;;;;;7.53;3.20;;;;;3.90;96393.00;;;;5089410;28;20634;-89
2023/11/13 04:43:05;;;;;;;8.13;3.17;;;;;4.20;96393.00;;;;5074896;28;20470;-88
2023/11/13 04:45:55;;;;;;;5.47;2.30;;;;;4.00;96392.00;;;;5071966;28;20433;-88
2023/11/13 04:48:44;;;;;;;2.93;1.43;;;;;3.10;96385.00;;;;5078458;28;20430;-88
2023/11/13 04:51:34;;;;;;;3.93;1.80;;;;;3.70;96388.00;;;;5072513;28;20432;-89
2023/11/13 04:54:23;;;;;;;4.73;1.93;;;;;3.80;96396.00;;;;5080843;28;20421;-89
2023/11/13 04:57:13;;;;;;;9.07;3.70;;;;;4.00;96378.00;;;;5085682;28;20435;-89
2023/11/13 05:00:03;;;;;;;11.67;4.33;;;;;4.30;96408.00;;;;5078532;28;20450;-90
2023/11/13 05:02:54;;;;;;;5.87;2.40;;;;;4.40;96412.00;;;;5083597;28;20427;-88
2023/11/13 05:05:43;;;;;;;13.43;5.00;;;;;3.80;96407.00;;;;5073660;28;20474;-90
2023/11/13 05:08:32;;;;;;;6.07;2.40;;;;;3.70;96427.00;;;;5075324;28;20427;-86
2023/11/13 05:11:24;;;;;;;9.47;3.57;;;;;3.70;96430.00;;;;5071432;28;20458;-88
2023/11/13 05:14:15;;;;;;;12.23;4.67;;;;;3.60;96428.00;;;;5073995;28;20442;-87
2023/11/13 05:17:04;;;;;;;9.93;3.87;;;;;3.40;96425.00;;;;5074088;28;20461;-88
2023/11/13 05:19:53;;;;;;;5.73;2.43;;;;;3.40;96423.00;;;;5069184;28;20453;-87
2023/11/13 05:22:42;;;;;;;7.73;3.03;;;;;3.60;96419.00;;;;5077443;28;20450;-89
2023/11/13 05:25:31;;;;;;;5.73;2.43;;;;;3.70;96414.00;;;;5075920;28;20426;-87
2023/11/13 05:28:20;;;;;;;5.03;2.27;;;;;3.30;96413.00;;;;5076410;28;20445;-89
2023/11/13 05:31:10;;;;;;;7.50;3.00;;;;;3.40;96415.00;;;;5075960;28;20454;-88
2023/11/13 05:33:59;;;;;;;6.13;2.50;;;;;3.70;96413.00;;;;5071834;28;20806;-87
2023/11/13 05:36:48;;;;;;;5.77;2.37;;;;;3.20;96398.00;;;;5075612;28;20447;-86
2023/11/13 05:39:37;;;;;;;5.67;2.37;;;;;3.00;96411.00;;;;5072109;28;20454;-86
2023/11/13 05:42:26;;;;;;;4.30;2.03;;;;;3.50;96439.00;;;;5061284;28;20422;-90
2023/11/13 05:45:16;;;;;;;8.47;3.73;;;;;3.30;96437.00;;;;5071297;28;20466;-87
2023/11/13 05:48:07;;;;;;;8.63;3.57;;;;;3.20;96417.00;;;;5080467;28;20430;-87
2023/11/13 05:50:56;;;;;;;4.97;2.20;;;;;3.00;96426.00;;;;5079439;28;20458;-87
2023/11/13 05:53:45;;;;;;;5.83;2.50;;;;;3.60;96437.00;;;;5071932;28;20465;-90
2023/11/13 05:56:34;;;;;;;6.23;2.60;;;;;3.90;96455.00;;;;5072881;28;20426;-89
2023/11/13 05:59:23;;;;;;;7.33;2.87;;;;;3.70;96465.00;;;;5076227;28;20423;-89
2023/11/13 06:02:12;;;;;;;6.37;2.80;;;;;3.70;96453.00;;;;5069431;28;20814;-87
2023/11/13 06:05:04;;;;;;;10.23;4.23;;;;;3.60;96445.00;;;;5072946;28;20497;-88
2023/11/13 06:07:53;;;;;;;5.20;2.37;;;;;3.60;96443.00;;;;5064497;28;20877;-87
2023/11/13 06:10:42;;;;;;;4.30;1.90;;;;;3.50;96460.00;;;;5071283;28;20463;-87
2023/11/13 06:13:32;;;;;;;5.90;2.40;;;;;2.90;96464.00;;;;5066991;28;20951;-88
2023/11/13 06:16:21;;;;;;;4.83;2.10;;;;;3.00;96483.00;;;;5072290;28;21004;-87
2023/11/13 06:19:10;;;;;;;8.43;3.53;;;;;2.80;96465.00;;;;5069295;28;20479;-86
2023/11/13 06:22:01;;;;;;;6.63;2.90;;;;;2.80;96462.00;;;;5069303;28;20522;-87
2023/11/13 06:24:50;;;;;;;7.00;3.00;;;;;3.40;96455.00;;;;5074182;28;20466;-86
2023/11/13 06:27:40;;;;;;;9.20;3.50;;;;;3.00;96459.00;;;;5072794;28;20437;-88
2023/11/13 06:30:30;;;;;;;6.13;2.60;;;;;3.70;96474.00;;;;5066826;28;20471;-88
2023/11/13 06:33:19;;;;;;;6.50;2.53;;;;;3.90;96476.00;;;;5070541;28;20465;-87
2023/11/13 06:36:09;;;;;;;9.97;3.97;;;;;3.70;96474.00;;;;5068891;28;21092;-86
2023/11/13 06:38:59;;;;;;;5.17;2.20;;;;;3.30;96478.00;;;;5069641;28;20422;-87
2023/11/13 06:41:48;;;;;;;5.70;2.37;;;;;3.60;96495.00;;;;5071313;28;20825;-86
2023/11/13 06:44:38;;;;;;;6.53;2.60;;;;;3.10;96480.00;;;;5068741;28;20462;-88
2023/11/13 06:47:27;;;;;;;4.57;2.00;;;;;3.30;96488.00;;;;5070762;28;20434;-86
2023/11/13 06:50:16;;;;;;;8.43;3.53;;;;;3.20;96494.00;;;;5070112;28;20460;-87
2023/11/13 06:53:05;;;;;;;9.00;3.50;;;;;3.10;96461.00;;;;5069024;28;20425;-84
2023/11/13 06:55:56;;;;;;;6.40;2.57;;;;;3.20;96472.00;;;;5069106;28;20411;-85
2023/11/13 06:58:45;;;;;;;7.13;2.90;;;;;3.80;96487.00;;;;5065061;28;20450;-86
2023/11/13 07:01:40;;;;;;;5.13;2.20;;;;;3.90;96491.00;;;;5063473;28;20454;-84
2023/11/13 07:04:29;;;;;;;4.90;2.00;;;;;3.80;96493.00;;;;5067017;28;20553;-88
2023/11/13 07:07:18;;;;;;;5.97;2.47;;;;;3.70;96488.00;;;;5068876;28;20664;-87
2023/11/13 07:10:12;;;;;;;7.70;3.10;;;;;4.00;96493.00;;;;5067717;28;20466;-87
2023/11/13 07:13:03;;;;;;;7.47;2.70;;;;;3.90;96496.00;;;;5075394;28;20422;-88
2023/11/13 07:15:52;;;;;;;8.20;3.03;;;;;4.30;96503.00;;;;5071200;28;20430;-86
2023/11/13 07:18:41;;;;;;;6.50;2.60;;;;;3.80;96507.00;;;;5075291;28;20431;-85
2023/11/13 07:21:30;;;;;;;6.47;2.60;;;;;3.50;96515.00;;;;5079944;28;20454;-86
2023/11/13 07:24:21;;;;;;;5.80;2.40;;;;;3.60;96516.00;;;;5077682;28;20458;-87
2023/11/13 07:27:12;;;;;;;8.80;3.27;;;;;4.10;96525.00;;;;5072052;28;20996;-88
2023/11/13 07:30:02;;;;;;;7.47;2.80;;;;;4.30;96521.00;;;;5063935;28;20667;-87
2023/11/13 07:32:51;;;;;;;5.83;2.30;;;;;4.10;96512.00;;;;5074498;28;20439;-86
2023/11/13 07:35:40;;;;;;;7.03;2.70;;;;;4.60;96530.00;;;;5075077;28;20414;-86
2023/11/13 07:38:29;;;;;;;7.53;2.87;;;;;4.80;96513.00;;;;5073375;28;21047;-87
2023/11/13 07:41:19;;;;;;;6.83;2.47;;;;;5.30;96515.00;;;;5072324;28;20443;-87
2023/11/13 07:44:08;;;;;;;11.37;4.03;;;;;5.40;96523.00;;;;5074650;28;20835;-87
2023/11/13 07:46:59;;;;;;;5.93;2.30;;;;;5.20;96531.00;;;;5072960;28;20434;-86
2023/11/13 07:49:48;;;;;;;6.90;2.40;;;;;5.40;96521.00;;;;5063381;28;20519;-86
2023/11/13 07:52:41;;;;;;;9.63;3.40;;;;;4.90;96510.00;;;;5073953;28;20446;-85
2023/11/13 07:55:30;;;;;;;6.40;2.40;;;;;4.90;96522.00;;;;5075433;28;20196;-86
2023/11/13 07:58:19;;;;;;;6.37;2.40;;;;;5.50;96525.00;;;;5075503;28;20269;-84
2023/11/13 08:01:09;;;;;;;6.50;2.40;;;;;5.40;96509.00;;;;5070969;28;20446;-85
2023/11/13 08:03:59;;;;;;;6.67;2.40;;;;;5.70;96517.00;;;;5072636;28;20208;-85
2023/11/13 08:06:48;;;;;;;6.57;2.40;;;;;5.60;96507.00;;;;5072237;28;20458;-87
2023/11/13 08:09:37;;;;;;;8.20;2.93;;;;;5.80;96513.00;;;;5073501;28;20231;-85
2023/11/13 08:12:27;;;;;;;6.13;2.23;;;;;6.00;96505.00;;;;5073623;28;20200;-87
2023/11/13 08:15:16;;;;;;;10.80;3.90;;;;;6.10;96512.00;;;;5077195;28;20207;-86
2023/11/13 08:18:05;;;;;;;12.40;4.10;;;;;6.00;96512.00;;;;5077920;28;20667;-87
2023/11/13 08:20:56;;;;;;;6.90;2.60;;;;;6.00;96513.00;;;;5068595;28;20227;-86
2023/11/13 08:23:45;;;;;;;8.90;3.13;;;;;6.00;96522.00;;;;5071773;28;20204;-86
2023/11/13 08:26:34;;;;;;;8.67;3.00;;;;;6.20;96526.00;;;;5072436;28;20226;-87
2023/11/13 08:29:25;;;;;;;13.03;4.37;;;;;6.70;96522.00;;;;5071266;28;20207;-86
2023/11/13 08:32:17;;;;;;;9.77;3.43;;;;;6.40;96521.00;;;;5072321;28;20594;-85
2023/11/13 08:35:11;;;;;;;12.30;4.07;;;;;6.30;96510.00;;;;5074301;28;20206;-85
2023/11/13 08:38:02;;;;;;;1.27;0.60;;;;;6.20;96513.00;;;;5073914;28;20200;-85
2023/11/13 08:40:52;;;;;;;6.60;2.33;;;;;6.50;96528.00;;;;5074571;28;20299;-87
2023/11/13 08:43:44;;;;;;;7.43;2.63;;;;;7.10;96520.00;;;;5074496;28;20215;-86
2023/11/13 08:46:35;;;;;;;8.03;2.80;;;;;7.40;96529.00;;;;5073423;28;20223;-87
2023/11/13 08:49:24;;;;;;;8.93;2.93;;;;;7.10;96529.00;;;;5071455;28;20214;-88
2023/11/13 08:52:13;;;;;;;10.50;3.63;;;;;6.60;96517.00;;;;5074532;28;20212;-86
2023/11/13 08:55:04;;;;;;;8.77;2.97;;;;;6.40;96518.00;;;;5073235;28;20200;-84
2023/11/13 08:57:54;;;;;;;6.10;2.20;;;;;6.80;96530.00;;;;5069195;28;20590;-84
2023/11/13 09:00:44;;;;;;;16.20;5.17;;;;;6.80;96540.00;;;;5060900;28;20219;-82
2023/11/13 09:03:33;;;;;;;8.20;2.73;;;;;7.10;96550.00;;;;5058239;28;20278;-84
2023/11/13 09:06:22;;;;;;;7.27;2.67;;;;;6.90;96564.00;;;;5067048;28;21614;-83
2023/11/13 09:09:13;;;;;;;13.03;4.43;;;;;7.10;96576.00;;;;5067795;28;20200;-87
2023/11/13 09:12:04;;;;;;;9.53;3.23;;;;;7.00;96566.00;;;;5076308;28;20204;-85
2023/11/13 09:14:53;;;;;;;9.73;3.17;;;;;6.90;96575.00;;;;5078706;28;20294;-83
2023/11/13 09:17:43;;;;;;;11.00;3.47;;;;;7.80;96586.00;;;;5074172;28;20207;-86
2023/11/13 09:20:32;;;;;;;8.87;2.83;;;;;8.10;96594.00;;;;5072348;28;20224;-86
2023/11/13 09:23:21;;;;;;;6.27;2.23;;;;;8.60;96587.00;;;;5069166;28;20227;-84
2023/11/13 09:26:11;;;;;;;13.60;4.43;;;;;8.80;96580.00;;;;5069930;28;20586;-86
2023/11/13 09:29:01;;;;;;;8.73;2.93;;;;;8.90;96566.00;;;;5063976;28;20200;-83
2023/11/13 09:31:52;;;;;;;8.07;2.70;;;;;9.10;96558.00;;;;5072859;28;20695;-85
2023/11/13 09:34:42;;;;;;;6.80;2.30;;;;;9.30;96575.00;;;;5074744;28;20192;-86
2023/11/13 09:37:31;;;;;;;8.80;2.90;;;;;9.50;96573.00;;;;5072562;28;20196;-87
2023/11/13 09:40:23;;;;;;;6.77;2.33;;;;;9.60;96582.00;;;;5076862;28;20227;-87
2023/11/13 09:43:15;;;;;;;11.50;3.80;;;;;9.50;96574.00;;;;5066882;28;20212;-87
2023/11/13 09:46:08;;;;;;;3.17;1.10;;;;;9.50;96578.00;;;;5065676;28;20739;-86
2023/11/13 09:48:58;;;;;;;8.97;2.80;;;;;9.60;96575.00;;;;5069110;28;20254;-86
2023/11/13 09:51:48;;;;;;;7.57;2.53;;;;;9.80;96560.00;;;;5071283;28;20574;-84
2023/11/13 09:54:38;;;;;;;7.20;2.33;;;;;10.10;96554.00;;;;5074958;28;20199;-86
2023/11/13 09:57:27;;;;;;;7.03;2.30;;;;;10.40;96546.00;;;;5072768;28;20199;-86
2023/11/13 10:00:19;;;;;;;14.00;4.50;;;;;10.50;96546.00;;;;5072441;28;20258;-85
2023/11/13 10:03:10;;;;;;;15.00;4.70;;;;;10.80;96555.00;;;;5072785;28;20695;-85
2023/11/13 10:05:59;;;;;;;7.47;2.40;;;;;11.00;96554.00;;;;5072984;28;20227;-84
2023/11/13 10:08:49;;;;;;;6.87;2.30;;;;;10.00;96554.00;;;;5070631;28;20207;-84
2023/11/13 10:11:39;;;;;;;3.13;1.07;;;;;10.30;96557.00;;;;5069262;28;20224;-85
2023/11/13 10:14:27;;;;;;;0.93;0.43;;;;;11.10;96562.00;;;;5065190;28;20672;-83
2023/11/13 10:17:17;;;;;;;4.70;1.63;;;;;11.10;96560.00;;;;5069510;28;20196;-86
2023/11/13 10:20:09;;;;;;;2.30;0.80;;;;;11.30;96571.00;;;;5067811;28;20293;-86
2023/11/13 10:22:59;;;;;;;9.03;2.97;;;;;11.70;96551.00;;;;5068917;28;20203;-84
2023/11/13 10:25:52;;;;;;;9.07;2.90;;;;;12.00;96556.00;;;;5070065;28;20234;-86
2023/11/13 10:28:41;;;;;;;9.80;3.10;;;;;12.30;96552.00;;;;5067553;28;20246;-87
2023/11/13 10:31:44;;;;;;;7.93;2.47;;;;;12.40;96560.00;;;;5065676;28;20227;-86
2023/11/13 10:34:43;;;;;;;7.30;2.37;;;;;12.20;96553.00;;;;5065725;28;20203;-84
2023/11/13 10:37:34;;;;;;;14.07;4.23;;;;;12.20;96544.00;;;;5071981;28;20266;-85
2023/11/13 10:40:28;;;;;;;2.63;0.87;;;;;12.50;96554.00;;;;5061713;28;20228;-84
2023/11/13 10:43:29;;;;;;;8.57;2.70;;;;;12.60;96540.00;;;;5056800;28;20211;-86
2023/11/13 10:46:29;;;;;;;11.97;3.87;;;;;12.30;96536.00;;;;5060803;28;20236;-87
2023/11/13 10:49:20;;;;;;;8.50;2.63;;;;;12.40;96533.00;;;;5063334;28;20207;-85
2023/11/13 10:52:10;;;;;;;8.13;2.57;;;;;12.70;96526.00;;;;5067496;28;20223;-85
2023/11/13 10:55:01;;;;;;;8.47;2.60;;;;;12.60;96518.00;;;;5069142;28;20207;-86
2023/11/13 10:57:51;;;;;;;7.83;2.40;;;;;12.90;96515.00;;;;5066172;28;20363;-85
2023/11/13 11:00:41;;;;;;;9.73;3.03;;;;;12.70;96514.00;;;;5076269;28;20218;-86
2023/11/13 11:03:32;;;;;;;7.80;2.40;;;;;12.90;96516.00;;;;5070855;28;20220;-83
2023/11/13 11:06:24;;;;;;;7.00;2.23;;;;;12.60;96514.00;;;;5072050;28;20767;-86
2023/11/13 11:09:17;;;;;;;14.17;4.33;;;;;12.60;96508.00;;;;5076043;28;20211;-85
2023/11/13 11:12:08;;;;;;;8.43;2.70;;;;;12.70;96507.00;;;;5068495;28;20731;-85
2023/11/13 11:15:32;;;;;;;8.43;2.80;;;;;12.60;96518.00;;;;5066318;28;20579;-86
2023/11/13 11:18:27;;;;;;;12.33;3.93;;;;;12.60;96501.00;;;;5066466;28;20203;-85
2023/11/13 11:21:26;;;;;;;13.73;4.47;;;;;11.60;96483.00;;;;5068872;28;20227;-84
2023/11/13 11:24:28;;;;;;;14.03;4.40;;;;;11.70;96496.00;;;;5066989;28;20204;-85
2023/11/13 11:27:36;;;;;;;8.53;2.83;;;;;11.80;96480.00;;;;5068130;28;20223;-86
2023/11/13 11:30:32;;;;;;;8.63;2.70;;;;;12.30;96469.00;;;;5068295;28;20696;-86
2023/11/13 11:33:22;;;;;;;8.93;3.10;;;;;12.40;96474.00;;;;5066803;28;20624;-86
2023/11/13 11:36:11;;;;;;;13.33;4.43;;;;;12.90;96471.00;;;;5067319;28;20203;-84
2023/11/13 11:39:13;;;;;;;7.13;2.37;;;;;13.00;96484.00;;;;5069070;28;20203;-86
2023/11/13 11:42:20;;;;;;;8.30;2.67;;;;;11.90;96446.00;;;;5072214;28;20200;-83
2023/11/13 11:45:10;;;;;;;14.53;4.40;;;;;12.80;96454.00;;;;5073418;28;20204;-86
2023/11/13 11:47:59;;;;;;;8.10;2.57;;;;;12.90;96433.00;;;;5072485;28;20229;-86
2023/11/13 11:50:53;;;;;;;7.73;2.50;;;;;12.50;96433.00;;;;5068362;28;20227;-84
2023/11/13 11:53:56;;;;;;;7.40;2.43;;;;;12.70;96433.00;;;;5069597;28;20200;-85
2023/11/13 11:56:56;;;;;;;9.30;3.00;;;;;13.90;96411.00;;;;5072679;28;20200;-85
2023/11/13 11:59:45;;;;;;;5.93;1.83;;;;;14.00;96428.00;;;;5069427;28;20223;-86
2023/11/13 12:02:36;;;;;;;9.50;2.73;;;;;13.40;96425.00;;;;5068546;28;20204;-86
2023/11/13 12:05:25;;;;;;;6.97;2.10;;;;;13.90;96410.00;;;;5076337;28;20228;-85
2023/11/13 12:08:14;;;;;;;14.27;4.23;;;;;13.90;96413.00;;;;5073649;28;20231;-86
2023/11/13 12:11:04;;;;;;;8.47;2.50;;;;;15.20;96404.00;;;;5071648;28;20224;-84
2023/11/13 12:13:53;;;;;;;11.03;2.93;;;;;16.40;96409.00;;;;5068828;28;20204;-86
2023/11/13 12:16:43;;;;;;;11.23;2.93;;;;;16.70;96400.00;;;;5070015;28;20573;-86
2023/11/13 12:19:33;;;;;;;28.60;12.57;;;;;17.90;96399.00;;;;5067947;28;20204;-86
2023/11/13 12:22:22;;;;;;;7.43;2.53;;;;;19.10;96372.00;;;;5069180;28;20204;-87
2023/11/13 12:25:14;;;;;;;13.17;4.20;;;;;19.40;96389.00;;;;5073334;28;20592;-87
2023/11/13 12:28:03;;;;;;;8.77;2.70;;;;;19.00;96416.00;;;;5072682;28;20638;-85
2023/11/13 12:30:52;;;;;;;8.23;2.63;;;;;18.70;96384.00;;;;5071283;28;20612;-86
2023/11/13 12:33:41;;;;;;;10.03;3.07;;;;;19.10;96452.00;;;;5074104;28;20199;-86
2023/11/13 12:36:32;;;;;;;9.75;2.95;;;;;18.70;96407.00;;;;5072753;28;20586;-86
2023/11/13 12:39:26;;;;;;;21.27;6.37;;;;;19.10;96443.00;;;;5079395;28;20195;-87
2023/11/13 12:42:16;;;;;;;8.43;2.73;;;;;18.70;96399.00;;;;5071448;28;20215;-87
2023/11/13 12:45:11;;;;;;;9.13;2.97;;;;;18.30;96439.00;;;;5071207;28;20219;-87
2023/11/13 12:48:06;;;;;;;8.43;2.63;;;;;17.70;96433.00;;;;5074856;28;20250;-87
2023/11/13 12:50:55;;;;;;;4.93;1.63;;;;;18.30;96399.00;;;;5077066;28;20297;-86
2023/11/13 12:53:50;;;;;;;8.47;2.60;;;;;18.50;96412.00;;;;5070487;28;20403;-87
2023/11/13 12:56:43;;;;;;;8.90;2.90;;;;;19.20;96389.00;;;;5069593;28;20200;-86
2023/11/13 12:59:32;;;;;;;15.13;4.70;;;;;19.00;96389.00;;;;5071329;28;20414;-86
2023/11/13 13:02:21;;;;;;;12.13;3.93;;;;;19.70;96396.00;;;;5060591;28;20214;-86
2023/11/13 13:05:12;;;;;;;12.20;3.90;;;;;19.60;96392.00;;;;5069498;28;20203;-86
2023/11/13 13:08:03;;;;;;;2.27;0.80;;;;;19.90;96397.00;;;;5069279;28;20693;-86
2023/11/13 13:10:54;;;;;;;7.57;2.40;;;;;18.50;96393.00;;;;5067510;28;20224;-87
2023/11/13 13:13:44;;;;;;;9.50;2.97;;;;;20.20;96402.00;;;;5067749;28;20200;-87
2023/11/13 13:16:33;;;;;;;7.93;2.60;;;;;20.10;96417.00;;;;5062505;28;20205;-85
2023/11/13 13:19:23;;;;;;;19.70;6.07;;;;;19.90;96399.00;;;;5060637;28;20207;-87
2023/11/13 13:22:12;;;;;;;11.83;3.73;;;;;20.50;96405.00;;;;5063141;28;20214;-86
2023/11/13 13:25:02;;;;;;;10.20;3.17;;;;;20.50;96412.00;;;;5064545;28;20203;-87
2023/11/13 13:27:53;;;;;;;9.20;2.87;;;;;20.50;96419.00;;;;5063578;28;20610;-87
2023/11/13 13:30:43;;;;;;;8.00;2.70;;;;;20.80;96399.00;;;;5062407;28;20224;-87
2023/11/13 13:33:33;;;;;;;8.53;2.63;;;;;21.10;96393.00;;;;5056898;28;20200;-86
2023/11/13 13:36:24;;;;;;;13.43;4.13;;;;;21.00;96398.00;;;;5067274;28;20676;-87
2023/11/13 13:39:14;;;;;;;13.93;4.27;;;;;21.60;96396.00;;;;5065491;28;20208;-87
2023/11/13 13:42:06;;;;;;;9.63;3.13;;;;;21.80;96395.00;;;;5067082;28;20196;-87
2023/11/13 13:44:56;;;;;;;10.37;3.50;;;;;20.90;96407.00;;;;5061072;28;20590;-87
2023/11/13 13:47:46;;;;;;;17.13;5.17;;;;;20.80;96412.00;;;;5084010;28;20232;-85
2023/11/13 13:50:35;;;;;;;10.10;3.17;;;;;20.10;96422.00;;;;5094531;28;20196;-86
2023/11/13 13:53:26;;;;;;;10.07;3.23;;;;;19.10;96432.00;;;;5086588;28;20200;-86
2023/11/13 13:56:20;;;;;;;11.73;3.57;;;;;18.40;96417.00;;;;5065297;28;20265;-86
2023/11/13 13:59:12;;;;;;;13.57;4.10;;;;;17.80;96411.00;;;;5078683;28;20204;-86
2023/11/13 14:02:03;;;;;;;8.10;2.50;;;;;17.50;96401.00;;;;5077117;28;20207;-86
2023/11/13 14:04:53;;;;;;;6.27;1.93;;;;;17.10;96410.00;;;;5075822;28;20196;-86
2023/11/13 14:07:42;;;;;;;16.40;4.97;;;;;16.60;96401.00;;;;5071296;28;20647;-87
2023/11/13 14:10:34;;;;;;;9.53;3.17;;;;;16.40;96408.00;;;;5065766;28;20212;-87
2023/11/13 14:13:24;;;;;;;9.63;3.23;;;;;16.10;96414.00;;;;5069515;28;20261;-86
2023/11/13 14:16:15;;;;;;;14.00;4.40;;;;;15.70;96403.00;;;;5065390;28;20204;-86
2023/11/13 14:19:07;;;;;;;6.30;2.27;;;;;15.40;96399.00;;;;5067837;28;20222;-84
2023/11/13 14:21:57;;;;;;;4.60;1.60;;;;;15.10;96400.00;;;;5072568;28;20202;-86